Time;durP1;ratioP1;P1;durP2;ratioP2;P2;SDS_P1;SDS_P2;PMS_P1;PMS_P2;Temp;Humidity;BMP_temperature;BMP_pressure;BME280_temperature;BME280_humidity;BME280_pressure;Samples;Min_cycle;Max_cycle;Signal;HPM_P1;HPM_P2
2021/08/22 00:01:43;;;;;;;11.60;10.50;;;;;;;20.56;100.00;98237.31;5073884;28;20227;-64
2021/08/22 00:04:11;;;;;;;11.50;10.30;;;;;;;20.57;100.00;98247.88;5073517;28;20688;-64
2021/08/22 00:06:38;;;;;;;11.10;9.87;;;;;;;20.59;100.00;98248.53;5073550;28;20573;-64
2021/08/22 00:09:06;;;;;;;12.57;9.57;;;;;;;20.61;100.00;98254.59;5073766;28;20217;-64
2021/08/22 00:11:33;;;;;;;11.67;10.47;;;;;;;20.63;100.00;98263.34;5072180;28;20210;-65
2021/08/22 00:13:59;;;;;;;11.83;10.63;;;;;;;20.65;100.00;98276.56;5073640;28;20580;-64
2021/08/22 00:16:26;;;;;;;11.50;10.30;;;;;;;20.66;100.00;98297.91;5073636;28;20211;-65
2021/08/22 00:18:52;;;;;;;9.87;8.93;;;;;;;20.74;100.00;98334.69;5073645;28;20214;-64
2021/08/22 00:21:20;;;;;;;11.20;9.00;;;;;;;20.82;100.00;98332.88;5073649;28;20203;-64
2021/08/22 00:23:46;;;;;;;9.57;8.03;;;;;;;20.75;100.00;98331.84;5073575;28;20239;-65
2021/08/22 00:26:13;;;;;;;10.27;7.27;;;;;;;20.50;100.00;98343.53;5073647;28;20212;-66
2021/08/22 00:28:39;;;;;;;9.33;5.80;;;;;;;19.96;100.00;98343.94;5073309;28;20214;-65
2021/08/22 00:31:06;;;;;;;9.10;4.27;;;;;;;19.13;100.00;98364.22;5073534;28;20210;-65
2021/08/22 00:33:32;;;;;;;9.60;4.00;;;;;;;18.64;100.00;98370.88;5073127;28;20669;-63
2021/08/22 00:35:59;;;;;;;7.90;3.63;;;;;;;18.10;100.00;98362.81;5071742;28;20238;-62
2021/08/22 00:38:26;;;;;;;6.23;3.30;;;;;;;17.86;100.00;98357.13;5073423;28;20211;-62
2021/08/22 00:40:53;;;;;;;10.20;3.47;;;;;;;17.61;100.00;98355.09;5073237;28;20215;-62
2021/08/22 00:43:19;;;;;;;4.90;2.77;;;;;;;17.45;100.00;98356.69;5073224;28;20236;-64
2021/08/22 00:45:48;;;;;;;5.43;2.87;;;;;;;17.17;100.00;98361.03;5073419;28;20570;-63
2021/08/22 00:48:14;;;;;;;5.30;2.73;;;;;;;17.10;100.00;98354.59;5072510;28;20211;-63
2021/08/22 00:50:41;;;;;;;3.53;2.97;;;;;;;17.03;100.00;98358.81;5073325;28;20214;-63
2021/08/22 00:53:08;;;;;;;5.40;2.73;;;;;;;17.05;100.00;98361.31;5073139;28;20208;-63
2021/08/22 00:55:36;;;;;;;5.10;2.57;;;;;;;17.11;100.00;98356.25;5073609;28;20243;-63
2021/08/22 00:58:03;;;;;;;4.57;2.80;;;;;;;17.11;100.00;98345.56;5073194;28;20211;-63
2021/08/22 01:00:29;;;;;;;5.10;2.63;;;;;;;17.09;100.00;98347.56;5070236;28;20214;-63
2021/08/22 01:03:09;;;;;;;4.83;2.50;;;;;;;17.03;100.00;98337.44;5057287;28;20235;-63
2021/08/22 01:05:44;;;;;;;4.03;2.70;;;;;;;17.06;100.00;98320.28;5060608;28;20212;-63
2021/08/22 01:08:20;;;;;;;3.13;2.33;;;;;;;17.02;100.00;98314.34;5069100;28;20211;-63
2021/08/22 01:10:52;;;;;;;3.80;2.47;;;;;;;16.91;100.00;98300.31;5059012;28;20215;-64
2021/08/22 01:13:23;;;;;;;5.90;3.10;;;;;;;16.84;100.00;98294.72;5072839;28;20208;-64
2021/08/22 01:15:54;;;;;;;2.90;2.30;;;;;;;16.73;100.00;98302.88;5073054;28;20211;-63
2021/08/22 01:18:24;;;;;;;3.97;2.57;;;;;;;16.62;100.00;98288.78;5072985;28;20207;-64
2021/08/22 01:21:02;;;;;;;5.77;2.57;;;;;;;16.52;100.00;98288.78;5072961;28;20215;-62
2021/08/22 01:23:29;;;;;;;4.27;2.83;;;;;;;16.51;100.00;98292.44;5072847;28;20230;-63
2021/08/22 01:25:57;;;;;;;3.63;2.77;;;;;;;16.51;100.00;98286.28;5073009;28;20207;-63
2021/08/22 01:28:24;;;;;;;4.17;2.53;;;;;;;16.53;100.00;98284.31;5071147;28;20207;-62
2021/08/22 01:30:54;;;;;;;3.00;2.27;;;;;;;16.48;100.00;98274.06;5072906;28;20216;-62
2021/08/22 01:33:23;;;;;;;5.53;2.70;;;;;;;16.43;100.00;98265.63;5072923;28;20560;-63
2021/08/22 01:35:51;;;;;;;4.00;2.60;;;;;;;16.44;100.00;98245.09;5072490;28;20244;-62
2021/08/22 01:38:18;;;;;;;2.47;2.10;;;;;;;16.43;100.00;98249.63;5072790;28;20211;-62
2021/08/22 01:40:46;;;;;;;3.67;2.50;;;;;;;16.36;100.00;98245.78;5072813;28;20215;-62
2021/08/22 01:43:15;;;;;;;6.10;2.70;;;;;;;16.34;100.00;98249.56;5072559;28;20235;-62
2021/08/22 01:45:42;;;;;;;4.00;2.80;;;;;;;16.33;100.00;98240.72;5072817;28;20212;-60
2021/08/22 01:48:11;;;;;;;4.93;3.50;;;;;;;16.35;100.00;98240.59;5072819;28;20211;-60
2021/08/22 01:50:40;;;;;;;3.83;2.97;;;;;;;16.36;100.00;98244.94;5072419;28;20218;-61
2021/08/22 01:53:09;;;;;;;4.30;3.00;;;;;;;16.36;100.00;98250.28;5072339;28;20739;-60
2021/08/22 01:55:36;;;;;;;4.60;3.00;;;;;;;16.38;100.00;98253.66;5071020;28;20212;-60
2021/08/22 01:58:03;;;;;;;3.67;3.00;;;;;;;16.40;100.00;98254.38;5072509;28;20204;-59
2021/08/22 02:00:29;;;;;;;6.43;3.27;;;;;;;16.40;100.00;98251.72;5075062;28;20582;-59
2021/08/22 02:03:00;;;;;;;3.90;3.10;;;;;;;16.40;100.00;98252.53;5075837;28;20230;-59
2021/08/22 02:05:28;;;;;;;4.67;3.80;;;;;;;16.44;100.00;98253.09;5076281;28;20222;-60
2021/08/22 02:07:56;;;;;;;5.07;3.77;;;;;;;16.42;100.00;98239.94;5076176;28;20554;-60
2021/08/22 02:10:27;;;;;;;4.60;3.43;;;;;;;16.39;100.00;98244.72;5076168;28;20214;-60
2021/08/22 02:12:59;;;;;;;5.07;3.50;;;;;;;16.37;100.00;98236.81;5075802;28;20684;-60
2021/08/22 02:15:30;;;;;;;3.90;3.17;;;;;;;16.40;100.00;98241.03;5075777;28;20212;-60
2021/08/22 02:18:00;;;;;;;5.20;3.87;;;;;;;16.40;100.00;98230.38;5075982;28;20219;-60
2021/08/22 02:20:27;;;;;;;5.83;3.83;;;;;;;16.43;100.00;98236.28;5074224;28;20233;-60
2021/08/22 02:22:56;;;;;;;4.93;3.90;;;;;;;16.45;100.00;98234.31;5075877;28;20235;-62
2021/08/22 02:25:23;;;;;;;4.60;3.67;;;;;;;16.49;100.00;98226.84;5075861;28;20207;-60
2021/08/22 02:27:50;;;;;;;4.87;3.70;;;;;;;16.54;100.00;98233.47;5075816;28;20203;-61
2021/08/22 02:30:16;;;;;;;4.83;4.30;;;;;;;16.60;100.00;98227.56;5075870;28;20218;-62
2021/08/22 02:32:43;;;;;;;5.20;4.30;;;;;;;16.69;100.00;98217.84;5075664;28;20204;-62
2021/08/22 02:35:10;;;;;;;7.43;4.80;;;;;;;16.70;100.00;98228.41;5075900;28;20239;-59
2021/08/22 02:37:37;;;;;;;5.33;4.47;;;;;;;16.72;100.00;98217.59;5075738;28;20211;-59
2021/08/22 02:40:06;;;;;;;6.30;4.90;;;;;;;16.73;100.00;98214.78;5075679;28;20208;-59
2021/08/22 02:42:33;;;;;;;5.80;5.13;;;;;;;16.77;100.00;98212.66;5075462;28;20228;-58
2021/08/22 02:44:59;;;;;;;5.93;4.93;;;;;;;16.81;100.00;98217.56;5075253;28;20223;-60
2021/08/22 02:47:26;;;;;;;5.90;5.10;;;;;;;16.80;100.00;98213.22;5073812;28;20211;-59
2021/08/22 02:49:52;;;;;;;7.10;5.50;;;;;;;16.82;100.00;98205.91;5075401;28;20218;-59
2021/08/22 02:52:19;;;;;;;6.77;5.63;;;;;;;16.87;100.00;98208.13;5075328;28;20218;-59
2021/08/22 02:54:45;;;;;;;7.03;5.33;;;;;;;16.90;100.00;98203.38;5075026;28;20755;-60
2021/08/22 02:57:13;;;;;;;5.97;5.37;;;;;;;16.91;100.00;98210.41;5075418;28;20215;-59
2021/08/22 02:59:39;;;;;;;6.43;5.60;;;;;;;16.92;100.00;98205.88;5075376;28;20204;-57
2021/08/22 03:02:06;;;;;;;7.30;5.60;;;;;;;16.97;100.00;98207.16;5074895;28;20215;-58
2021/08/22 03:04:32;;;;;;;7.10;5.43;;;;;;;16.92;100.00;98211.22;5075052;28;20250;-59
2021/08/22 03:06:59;;;;;;;7.00;5.50;;;;;;;16.93;100.00;98218.25;5075060;28;20216;-58
2021/08/22 03:09:25;;;;;;;7.17;5.40;;;;;;;16.87;100.00;98218.81;5074968;28;20211;-60
2021/08/22 03:11:52;;;;;;;6.27;5.20;;;;;;;16.88;100.00;98209.84;5072784;28;20207;-60
2021/08/22 03:14:20;;;;;;;6.03;5.43;;;;;;;16.89;100.00;98211.53;5074323;28;20685;-60
2021/08/22 03:16:46;;;;;;;6.40;5.47;;;;;;;16.97;100.00;98220.50;5074532;28;20211;-59
2021/08/22 03:19:13;;;;;;;7.13;5.20;;;;;;;17.03;100.00;98221.75;5074497;28;20203;-60
2021/08/22 03:21:41;;;;;;;6.70;5.13;;;;;;;17.09;100.00;98224.69;5074784;28;20234;-61
2021/08/22 03:24:08;;;;;;;5.87;5.27;;;;;;;17.09;100.00;98219.38;5074412;28;20289;-59
2021/08/22 03:26:35;;;;;;;6.40;5.03;;;;;;;17.15;100.00;98229.47;5074693;28;20219;-59
2021/08/22 03:29:01;;;;;;;5.77;4.83;;;;;;;17.14;100.00;98230.44;5074320;28;20200;-62
2021/08/22 03:31:29;;;;;;;6.37;5.10;;;;;;;17.08;100.00;98231.00;5074748;28;20234;-60
2021/08/22 03:33:55;;;;;;;5.23;4.67;;;;;;;17.02;100.00;98228.91;5074493;28;20208;-60
2021/08/22 03:36:22;;;;;;;5.03;4.53;;;;;;;17.00;100.00;98230.88;5074212;28;20674;-62
2021/08/22 03:38:48;;;;;;;5.87;4.97;;;;;;;17.03;100.00;98229.75;5072768;28;20577;-61
2021/08/22 03:41:15;;;;;;;6.40;4.70;;;;;;;17.03;100.00;98225.28;5074086;28;20661;-62
2021/08/22 03:43:42;;;;;;;5.70;5.10;;;;;;;16.97;100.00;98236.53;5074243;28;20246;-62
2021/08/22 03:46:08;;;;;;;5.57;4.80;;;;;;;16.92;100.00;98233.44;5074245;28;20203;-62
2021/08/22 03:48:36;;;;;;;8.17;5.43;;;;;;;16.90;100.00;98240.75;5074032;28;20219;-62
2021/08/22 03:51:03;;;;;;;6.40;5.70;;;;;;;16.95;100.00;98233.13;5073882;28;20688;-62
2021/08/22 03:53:29;;;;;;;6.57;5.67;;;;;;;16.96;100.00;98240.16;5074198;28;20207;-62
2021/08/22 03:55:56;;;;;;;6.50;4.87;;;;;;;16.97;100.00;98238.34;5074184;28;20211;-62
2021/08/22 03:58:22;;;;;;;5.93;5.30;;;;;;;16.96;100.00;98242.00;5074074;28;20207;-62
2021/08/22 04:00:48;;;;;;;6.27;5.00;;;;;;;16.96;100.00;98244.69;5075230;28;20215;-62
2021/08/22 04:03:15;;;;;;;6.20;5.40;;;;;;;16.93;100.00;98234.25;5073745;28;20599;-62
2021/08/22 04:05:43;;;;;;;6.77;5.73;;;;;;;16.96;100.00;98240.16;5072231;28;20208;-63
2021/08/22 04:08:09;;;;;;;7.13;5.83;;;;;;;16.97;100.00;98257.88;5073874;28;20575;-63
2021/08/22 04:10:36;;;;;;;6.07;5.23;;;;;;;16.99;100.00;98258.59;5073935;28;20212;-63
2021/08/22 04:13:02;;;;;;;6.47;5.80;;;;;;;16.96;100.00;98261.53;5073742;28;20298;-63
2021/08/22 04:15:29;;;;;;;7.17;5.73;;;;;;;16.99;100.00;98263.91;5073684;28;20214;-62
2021/08/22 04:17:55;;;;;;;7.30;5.30;;;;;;;16.99;100.00;98269.25;5073802;28;20571;-62
2021/08/22 04:20:22;;;;;;;5.83;5.10;;;;;;;17.02;100.00;98254.78;5073788;28;20207;-62
2021/08/22 04:22:50;;;;;;;5.90;5.10;;;;;;;17.02;100.00;98252.94;5073489;28;20564;-62
2021/08/22 04:25:17;;;;;;;6.00;5.10;;;;;;;16.98;100.00;98253.38;5073627;28;20590;-62
2021/08/22 04:27:43;;;;;;;5.87;5.20;;;;;;;16.91;100.00;98258.47;5073142;28;20210;-62
2021/08/22 04:30:13;;;;;;;5.20;4.67;;;;;;;16.89;100.00;98260.41;5071410;28;20208;-62
2021/08/22 04:32:39;;;;;;;5.63;4.83;;;;;;;16.92;100.00;98261.97;5073343;28;20207;-62
2021/08/22 04:35:07;;;;;;;5.10;4.50;;;;;;;16.91;100.00;98258.47;5073079;28;20231;-62
2021/08/22 04:37:34;;;;;;;6.50;5.10;;;;;;;16.90;100.00;98263.94;5073502;28;20574;-62
2021/08/22 04:40:02;;;;;;;5.47;4.73;;;;;;;16.91;100.00;98257.59;5073169;28;20215;-62
2021/08/22 04:42:28;;;;;;;5.83;5.00;;;;;;;16.94;100.00;98263.50;5073449;28;20211;-62
2021/08/22 04:44:55;;;;;;;5.43;4.83;;;;;;;16.93;100.00;98266.31;5073279;28;20242;-62
2021/08/22 04:47:21;;;;;;;5.87;5.27;;;;;;;16.90;100.00;98259.44;5072958;28;20222;-63
2021/08/22 04:49:48;;;;;;;5.00;4.50;;;;;;;16.92;100.00;98260.13;5073265;28;20568;-63
2021/08/22 04:52:15;;;;;;;6.43;5.60;;;;;;;16.96;100.00;98261.53;5073322;28;20210;-63
2021/08/22 04:54:42;;;;;;;6.93;5.70;;;;;;;16.99;100.00;98263.06;5073120;28;20590;-63
2021/08/22 04:57:10;;;;;;;7.37;5.90;;;;;;;17.10;100.00;98263.78;5071608;28;20211;-63
2021/08/22 04:59:37;;;;;;;7.00;6.00;;;;;;;17.23;100.00;98266.97;5073146;28;20214;-63
2021/08/22 05:02:04;;;;;;;6.63;5.90;;;;;;;17.36;100.00;98263.97;5073233;28;20219;-63
2021/08/22 05:04:31;;;;;;;6.77;5.70;;;;;;;17.43;100.00;98265.13;5072795;28;20239;-63
2021/08/22 05:06:57;;;;;;;6.27;5.40;;;;;;;17.51;100.00;98262.56;5073121;28;20218;-64
2021/08/22 05:09:23;;;;;;;6.43;5.50;;;;;;;17.57;100.00;98270.88;5072788;28;20218;-63
2021/08/22 05:11:50;;;;;;;6.20;5.53;;;;;;;17.65;100.00;98270.97;5072684;28;20207;-64
2021/08/22 05:14:18;;;;;;;6.17;4.97;;;;;;;17.71;100.00;98270.38;5072864;28;20211;-63
2021/08/22 05:16:44;;;;;;;6.90;5.77;;;;;;;17.75;100.00;98282.44;5072864;28;20211;-64
2021/08/22 05:19:11;;;;;;;6.60;5.20;;;;;;;17.78;100.00;98290.19;5072934;28;20218;-64
2021/08/22 05:21:37;;;;;;;6.83;5.27;;;;;;;17.82;100.00;98286.25;5072722;28;20203;-63
2021/08/22 05:24:04;;;;;;;6.33;5.30;;;;;;;17.84;100.00;98292.28;5071373;28;20231;-63
2021/08/22 05:26:31;;;;;;;5.97;5.13;;;;;;;17.87;100.00;98291.97;5072978;28;20301;-63
2021/08/22 05:28:57;;;;;;;5.67;4.93;;;;;;;17.90;100.00;98296.19;5072796;28;20207;-63
2021/08/22 05:31:25;;;;;;;6.10;5.50;;;;;;;17.91;100.00;98292.53;5072560;28;20303;-63
2021/08/22 05:33:52;;;;;;;6.80;5.63;;;;;;;17.92;100.00;98284.34;5072662;28;20208;-63
2021/08/22 05:36:20;;;;;;;6.70;5.63;;;;;;;17.96;100.00;98296.44;5076691;28;20571;-63
2021/08/22 05:38:47;;;;;;;5.77;5.00;;;;;;;18.00;100.00;98302.34;5076423;28;20207;-63
2021/08/22 05:41:14;;;;;;;6.30;5.70;;;;;;;18.06;100.00;98305.28;5076690;28;20227;-63
2021/08/22 05:43:41;;;;;;;6.87;5.80;;;;;;;18.13;100.00;98298.34;5076307;28;20239;-63
2021/08/22 05:46:08;;;;;;;7.23;5.87;;;;;;;18.17;100.00;98315.75;5076290;28;20691;-63
2021/08/22 05:48:36;;;;;;;6.40;5.70;;;;;;;18.18;100.00;98301.41;5074931;28;20289;-63
2021/08/22 05:51:02;;;;;;;6.67;5.90;;;;;;;18.21;100.00;98302.91;5076471;28;20207;-63
2021/08/22 05:53:29;;;;;;;6.30;5.67;;;;;;;18.24;100.00;98303.47;5076351;28;20222;-63
2021/08/22 05:55:56;;;;;;;7.10;6.17;;;;;;;18.28;100.00;98302.19;5076097;28;20220;-63
2021/08/22 05:58:23;;;;;;;6.13;5.53;;;;;;;18.32;100.00;98298.25;5076376;28;20222;-63
2021/08/22 06:00:49;;;;;;;6.00;5.50;;;;;;;18.38;100.00;98303.00;5075967;28;20669;-63
2021/08/22 06:03:16;;;;;;;6.90;6.20;;;;;;;18.46;100.00;98308.44;5076265;28;20216;-63
2021/08/22 06:05:43;;;;;;;7.50;6.13;;;;;;;18.51;100.00;98292.78;5076295;28;20207;-63
2021/08/22 06:08:10;;;;;;;6.73;6.03;;;;;;;18.57;100.00;98289.50;5076177;28;20683;-63
2021/08/22 06:10:36;;;;;;;6.53;5.93;;;;;;;18.64;100.00;98290.56;5076145;28;20211;-63
2021/08/22 06:13:03;;;;;;;6.93;6.13;;;;;;;18.72;100.00;98298.66;5075925;28;20215;-63
2021/08/22 06:15:29;;;;;;;6.13;5.53;;;;;;;18.76;100.00;98302.75;5074477;28;20204;-63
2021/08/22 06:17:56;;;;;;;6.83;5.90;;;;;;;18.81;100.00;98299.59;5075818;28;20211;-63
2021/08/22 06:20:22;;;;;;;6.30;5.70;;;;;;;18.85;100.00;98296.47;5075967;28;20212;-63
2021/08/22 06:22:50;;;;;;;6.43;5.83;;;;;;;18.89;100.00;98297.00;5075759;28;20551;-63
2021/08/22 06:25:16;;;;;;;7.33;6.27;;;;;;;18.95;100.00;98296.41;5075804;28;20243;-63
2021/08/22 06:27:43;;;;;;;8.17;6.53;;;;;;;19.01;100.00;98285.06;5075903;28;20230;-63
2021/08/22 06:30:10;;;;;;;6.73;5.87;;;;;;;19.06;100.00;98288.97;5075583;28;20207;-63
2021/08/22 06:32:37;;;;;;;6.27;5.67;;;;;;;19.10;100.00;98281.44;5075462;28;20691;-63
2021/08/22 06:35:03;;;;;;;6.27;5.67;;;;;;;19.15;100.00;98277.28;5075595;28;20250;-63
2021/08/22 06:37:30;;;;;;;6.17;5.57;;;;;;;19.25;100.00;98282.59;5075627;28;20226;-62
2021/08/22 06:39:59;;;;;;;6.80;6.10;;;;;;;19.39;100.00;98285.53;5074124;28;20212;-62
2021/08/22 06:42:27;;;;;;;6.40;5.80;;;;;;;19.52;100.00;98291.31;5075330;28;20222;-63
2021/08/22 06:44:54;;;;;;;6.40;5.53;;;;;;;19.70;100.00;98294.78;5074438;28;20707;-63
2021/08/22 06:47:20;;;;;;;5.97;5.37;;;;;;;19.90;100.00;98288.22;5057847;28;20238;-63
2021/08/22 06:49:47;;;;;;;6.20;5.60;;;;;;;20.07;100.00;98289.16;5070680;28;20222;-63
2021/08/22 06:52:13;;;;;;;6.43;5.83;;;;;;;20.17;100.00;98285.34;5063670;28;20218;-63
2021/08/22 06:54:41;;;;;;;6.77;6.07;;;;;;;20.19;100.00;98287.88;5062769;28;20223;-62
2021/08/22 06:57:09;;;;;;;6.50;5.90;;;;;;;20.17;100.00;98282.66;5054898;28;20219;-63
2021/08/22 06:59:36;;;;;;;6.47;5.27;;;;;;;20.19;100.00;98280.63;5055249;28;20223;-62
2021/08/22 07:02:02;;;;;;;6.57;5.67;;;;;;;20.21;100.00;98289.41;5054987;28;20211;-62
2021/08/22 07:04:29;;;;;;;5.93;5.43;;;;;;;20.18;100.00;98295.06;5055162;28;20597;-62
2021/08/22 07:06:55;;;;;;;6.67;5.33;;;;;;;20.13;100.00;98292.06;5053204;28;20208;-63
2021/08/22 07:09:22;;;;;;;5.97;5.17;;;;;;;20.05;100.00;98286.59;5055038;28;20217;-62
2021/08/22 07:11:49;;;;;;;5.73;5.20;;;;;;;20.00;100.00;98296.16;5055051;28;20212;-62
2021/08/22 07:14:17;;;;;;;5.70;5.07;;;;;;;19.95;100.00;98283.22;5054845;28;20212;-62
2021/08/22 07:16:43;;;;;;;5.90;5.20;;;;;;;19.94;100.00;98278.00;5054917;28;20208;-62
2021/08/22 07:19:10;;;;;;;5.60;4.80;;;;;;;20.01;100.00;98282.56;5054888;28;20216;-62
2021/08/22 07:21:36;;;;;;;5.40;4.90;;;;;;;20.15;100.00;98278.44;5054649;28;20207;-62
2021/08/22 07:24:03;;;;;;;5.93;5.33;;;;;;;20.25;100.00;98284.53;5054575;28;20228;-62
2021/08/22 07:26:30;;;;;;;6.90;5.37;;;;;;;20.32;100.00;98289.09;5054660;28;20215;-63
2021/08/22 07:28:56;;;;;;;6.20;5.60;;;;;;;20.33;100.00;98288.09;5073786;28;20207;-62
2021/08/22 07:31:24;;;;;;;6.57;5.40;;;;;;;20.38;100.00;98287.59;5067132;28;20216;-63
2021/08/22 07:33:51;;;;;;;6.27;5.67;;;;;;;20.43;100.00;98294.16;5064369;28;20219;-63
2021/08/22 07:36:17;;;;;;;5.67;5.17;;;;;;;20.49;100.00;98288.13;5059003;28;20208;-62
2021/08/22 07:38:44;;;;;;;6.00;5.40;;;;;;;20.54;100.00;98279.59;5070521;28;20223;-62
2021/08/22 07:41:11;;;;;;;10.37;6.20;;;;;;;20.63;100.00;98283.97;5061431;28;20212;-62
2021/08/22 07:43:38;;;;;;;6.57;5.80;;;;;;;20.83;100.00;98299.63;5062883;28;20677;-63
2021/08/22 07:46:04;;;;;;;6.60;5.30;;;;;;;21.00;100.00;98293.31;5069322;28;20235;-62
2021/08/22 07:48:32;;;;;;;6.53;5.93;;;;;;;21.12;100.00;98300.03;5057795;28;20212;-63
2021/08/22 07:50:58;;;;;;;6.93;5.70;;;;;;;21.16;100.00;98301.34;5067302;28;20482;-62
2021/08/22 07:53:25;;;;;;;5.90;5.30;;;;;;;21.17;100.00;98300.38;5064862;28;20214;-63
2021/08/22 07:55:51;;;;;;;5.83;5.27;;;;;;;21.17;100.00;98303.06;5058892;28;20210;-63
2021/08/22 07:58:18;;;;;;;5.43;4.93;;;;;;;21.12;100.00;98318.00;5070075;28;20215;-63
2021/08/22 08:00:44;;;;;;;5.93;5.33;;;;;;;21.17;100.00;98313.81;5058692;28;20208;-62
2021/08/22 08:03:12;;;;;;;7.53;5.27;;;;;;;21.28;100.00;98308.06;5063750;28;20215;-63
2021/08/22 08:05:40;;;;;;;5.73;5.07;;;;;;;21.60;100.00;98316.16;5068193;28;20253;-63
2021/08/22 08:08:07;;;;;;;5.20;4.70;;;;;;;22.00;100.00;98316.06;5057597;28;20212;-63
2021/08/22 08:10:34;;;;;;;6.23;5.27;;;;;;;22.21;100.00;98318.19;5073936;28;20215;-63
2021/08/22 08:13:00;;;;;;;5.63;5.13;;;;;;;22.37;100.00;98318.13;5073848;28;20223;-62
2021/08/22 08:15:27;;;;;;;5.47;4.97;;;;;;;22.48;100.00;98324.00;5073540;28;20218;-62
2021/08/22 08:17:53;;;;;;;5.37;4.70;;;;;;;22.51;100.00;98326.34;5073543;28;20665;-62
2021/08/22 08:20:20;;;;;;;5.80;5.13;;;;;;;22.50;100.00;98324.66;5073400;28;20218;-62
2021/08/22 08:22:48;;;;;;;5.67;5.10;;;;;;;22.52;100.00;98336.13;5073679;28;20585;-62
2021/08/22 08:25:14;;;;;;;5.80;4.93;;;;;;;22.64;100.00;98334.72;5071849;28;20237;-62
2021/08/22 08:27:40;;;;;;;4.80;4.37;;;;;;;22.50;100.00;98330.03;5073287;28;20667;-62
2021/08/22 08:30:08;;;;;;;5.30;4.80;;;;;;;22.29;100.00;98331.63;5073328;28;20578;-62
2021/08/22 08:32:39;;;;;;;5.33;4.83;;;;;;;22.24;100.00;98326.75;5071243;28;20219;-62
2021/08/22 08:35:06;;;;;;;6.17;4.73;;;;;;;22.10;100.00;98335.56;5071685;28;20265;-62
2021/08/22 08:37:33;;;;;;;4.63;4.17;;;;;;;21.93;100.00;98330.38;5071985;28;20214;-62
2021/08/22 08:40:01;;;;;;;5.23;4.50;;;;;;;21.78;100.00;98330.28;5072122;28;20207;-61
2021/08/22 08:42:31;;;;;;;5.60;4.37;;;;;;;21.76;100.00;98329.59;5070438;28;20214;-62
2021/08/22 08:44:58;;;;;;;4.83;4.20;;;;;;;21.76;100.00;98332.28;5069329;28;20231;-62
2021/08/22 08:47:25;;;;;;;4.53;4.03;;;;;;;21.89;100.00;98337.97;5072225;28;20215;-62
2021/08/22 08:49:58;;;;;;;4.60;4.20;;;;;;;22.10;100.00;98349.03;5072619;28;20207;-62
2021/08/22 08:52:37;;;;;;;5.40;4.40;;;;;;;22.26;100.00;98340.06;5071271;28;20225;-62
2021/08/22 08:55:07;;;;;;;4.77;4.37;;;;;;;22.38;100.00;98347.56;5073310;28;20583;-62
2021/08/22 08:57:34;;;;;;;4.67;4.13;;;;;;;22.57;100.00;98347.22;5072680;28;20218;-62
2021/08/22 09:00:00;;;;;;;4.63;4.10;;;;;;;22.65;98.94;98344.47;5066211;28;20220;-63
2021/08/22 09:02:27;;;;;;;4.80;4.30;;;;;;;22.64;98.26;98340.09;5063781;28;20207;-63
2021/08/22 09:04:55;;;;;;;3.73;3.40;;;;;;;22.52;96.21;98340.66;5058325;28;20243;-62
2021/08/22 09:07:46;;;;;;;3.97;3.43;;;;;;;22.27;96.97;98347.13;5069358;28;20211;-62
2021/08/22 09:10:59;;;;;;;4.67;3.90;;;;;;;22.17;100.00;98344.63;5061894;28;20227;-62
2021/08/22 09:14:07;;;;;;;3.90;3.30;;;;;;;22.05;100.00;98346.00;5055666;28;20222;-63
2021/08/22 09:17:11;;;;;;;3.47;3.17;;;;;;;22.02;100.00;98340.97;5066316;28;20219;-63
2021/08/22 09:20:22;;;;;;;3.50;3.20;;;;;;;22.03;100.00;98345.34;5072653;28;20214;-63
2021/08/22 09:23:40;;;;;;;3.77;3.47;;;;;;;22.04;100.00;98336.25;5072988;28;20580;-63
2021/08/22 09:26:49;;;;;;;4.17;3.70;;;;;;;21.91;98.54;98333.28;5072553;28;20234;-63
2021/08/22 09:29:53;;;;;;;4.83;4.23;;;;;;;21.47;100.00;98331.94;5072858;28;20217;-62
2021/08/22 09:32:57;;;;;;;4.87;4.37;;;;;;;20.74;100.00;98343.63;5072817;28;20211;-63
2021/08/22 09:36:00;;;;;;;5.70;5.10;;;;;;;20.16;100.00;98345.41;5072587;28;20246;-63
2021/08/22 09:39:00;;;;;;;6.33;5.73;;;;;;;19.76;100.00;98346.97;5071139;28;20677;-63
2021/08/22 09:42:05;;;;;;;6.57;5.93;;;;;;;19.57;100.00;98341.81;5061855;28;20222;-63
2021/08/22 09:45:23;;;;;;;6.87;6.17;;;;;;;19.63;100.00;98336.66;5054590;28;20215;-63
2021/08/22 09:48:22;;;;;;;7.73;6.50;;;;;;;19.87;100.00;98327.94;5059497;28;20209;-63
2021/08/22 09:51:35;;;;;;;7.67;6.63;;;;;;;20.28;100.00;98333.38;5057774;28;20219;-63
2021/08/22 09:54:39;;;;;;;7.23;6.53;;;;;;;20.80;100.00;98350.16;5056819;28;20220;-63
2021/08/22 09:57:54;;;;;;;6.63;5.73;;;;;;;21.20;100.00;98343.03;5060684;28;20248;-63
2021/08/22 10:00:55;;;;;;;6.60;5.90;;;;;;;21.47;100.00;98337.31;5055998;28;20215;-63
2021/08/22 10:03:58;;;;;;;7.30;6.03;;;;;;;21.57;100.00;98342.53;5060866;28;20223;-63
2021/08/22 10:06:50;;;;;;;6.07;5.47;;;;;;;21.67;100.00;98335.16;5056228;28;20611;-63
2021/08/22 10:09:18;;;;;;;6.33;5.73;;;;;;;21.70;100.00;98340.19;5060752;28;20208;-63
2021/08/22 10:11:49;;;;;;;5.70;5.10;;;;;;;21.80;100.00;98339.00;5066554;28;20221;-63
2021/08/22 10:14:16;;;;;;;7.43;5.77;;;;;;;21.99;100.00;98332.38;5056060;28;20219;-63
2021/08/22 10:16:48;;;;;;;6.00;5.33;;;;;;;22.10;100.00;98324.81;5064165;28;20212;-63
2021/08/22 10:19:14;;;;;;;6.50;5.80;;;;;;;22.22;100.00;98331.50;5064981;28;20215;-63
2021/08/22 10:21:41;;;;;;;6.47;5.87;;;;;;;22.17;100.00;98328.47;5058633;28;20239;-63
2021/08/22 10:24:11;;;;;;;8.87;6.07;;;;;;;21.99;100.00;98319.78;5071504;28;20228;-63
2021/08/22 10:26:56;;;;;;;8.20;5.70;;;;;;;21.70;100.00;98329.44;5055761;28;20594;-63
2021/08/22 10:29:27;;;;;;;6.47;5.87;;;;;;;21.31;100.00;98340.03;5073770;28;20584;-63
2021/08/22 10:32:06;;;;;;;7.73;6.33;;;;;;;20.70;100.00;98339.56;5074658;28;20208;-63
2021/08/22 10:34:33;;;;;;;7.73;6.87;;;;;;;20.28;100.00;98333.38;5074960;28;20251;-63
2021/08/22 10:37:00;;;;;;;8.57;7.67;;;;;;;19.96;100.00;98330.50;5073553;28;20204;-62
2021/08/22 10:39:29;;;;;;;8.53;7.73;;;;;;;19.67;100.00;98326.44;5074730;28;20209;-61
2021/08/22 10:41:57;;;;;;;8.70;7.63;;;;;;;19.63;100.00;98331.28;5075035;28;20211;-61
2021/08/22 10:44:40;;;;;;;9.90;8.30;;;;;;;19.38;100.00;98318.72;5074954;28;20212;-61
2021/08/22 10:47:09;;;;;;;9.90;8.53;;;;;;;19.33;100.00;98323.69;5074954;28;20215;-62
2021/08/22 10:50:00;;;;;;;9.93;8.73;;;;;;;19.25;100.00;98320.97;5074662;28;20209;-60
2021/08/22 10:52:28;;;;;;;9.47;8.47;;;;;;;19.13;100.00;98322.16;5074899;28;20211;-62
2021/08/22 10:55:32;;;;;;;12.57;10.07;;;;;;;19.01;100.00;98322.56;5074487;28;20217;-61
2021/08/22 10:58:01;;;;;;;11.63;10.37;;;;;;;19.01;100.00;98311.84;5074676;28;20214;-62
2021/08/22 11:00:29;;;;;;;12.40;10.27;;;;;;;18.99;100.00;98330.75;5074761;28;20222;-62
2021/08/22 11:02:58;;;;;;;7.57;5.70;;;;;;;18.89;100.00;98329.97;5073031;28;20212;-62
2021/08/22 11:05:26;;;;;;;2.20;1.97;;;;;;;18.36;100.00;98342.44;5074391;28;20238;-61
2021/08/22 11:07:55;;;;;;;2.23;1.90;;;;;;;18.07;100.00;98325.69;5074432;28;20207;-61
2021/08/22 11:10:24;;;;;;;1.40;1.30;;;;;;;17.84;100.00;98337.72;5074279;28;20669;-61
2021/08/22 11:12:52;;;;;;;1.33;1.20;;;;;;;17.70;100.00;98343.56;5069137;28;20248;-61
2021/08/22 11:15:23;;;;;;;2.40;1.40;;;;;;;17.45;100.00;98346.84;5054364;28;20575;-61
2021/08/22 11:17:50;;;;;;;1.97;1.50;;;;;;;17.13;100.00;98354.28;5067877;28;20215;-62
2021/08/22 11:20:19;;;;;;;4.77;1.90;;;;;;;17.04;100.00;98348.94;5057858;28;20571;-61
2021/08/22 11:22:47;;;;;;;2.50;1.80;;;;;;;16.96;100.00;98356.81;5068810;28;20234;-62
2021/08/22 11:25:14;;;;;;;3.67;1.80;;;;;;;17.09;100.00;98362.72;5062980;28;20686;-62
2021/08/22 11:27:41;;;;;;;2.50;1.70;;;;;;;17.15;100.00;98360.34;5064624;28;20203;-61
2021/08/22 11:30:10;;;;;;;2.57;1.70;;;;;;;17.27;100.00;98369.91;5070737;28;20230;-62
2021/08/22 11:32:38;;;;;;;2.33;1.70;;;;;;;17.39;100.00;98366.13;5057833;28;20581;-62
2021/08/22 11:35:13;;;;;;;2.57;1.80;;;;;;;17.48;100.00;98361.72;5064114;28;20247;-61
2021/08/22 11:37:41;;;;;;;1.50;1.40;;;;;;;17.52;100.00;98358.66;5053899;28;20234;-61
2021/08/22 11:40:09;;;;;;;2.17;1.17;;;;;;;17.50;100.00;98367.78;5069967;28;20224;-61